Woodland, Georgia
Current Conditions -  °F | °C
As of 12:35 PM on Wednesday 26 Nov 2014 (Local Time) from KOPN Reporting Station
Clear Clear  
Wind Chill: 55°   Ceiling: Unl
Heat Index: 55°   Visibility: 10mi
Dew Point: 32°   Wind: 14mph
Humidity: 41%   Direction: 310°NW
Pressure: 30.12"   Gusts: 20mph
Location:  32.79°N, 84.56°W
Report Text: KOPN 261735Z AUTO 31012G17KT 10SM CLR 13/00 A3012 RMK AO2
Loading
Personal Weather Stations






























Interactive Weather Map New forecast layout! Learn more

10-Day Weather Forecast

Advertisements
Track Severe Weather on mobile